createdAt,value
2017-04-17T00:00:08.186Z,957.41
2017-04-17T00:01:07.889Z,957.49
2017-04-17T00:02:07.494Z,957.46
2017-04-17T00:03:08.057Z,957.37
2017-04-17T00:04:07.627Z,957.37
2017-04-17T00:05:08.235Z,957.35
2017-04-17T00:06:08.207Z,957.36
2017-04-17T00:07:07.843Z,957.33
2017-04-17T00:08:07.368Z,957.33
2017-04-17T00:09:07.812Z,957.30
2017-04-17T00:10:07.361Z,957.30
2017-04-17T00:11:07.916Z,957.35
2017-04-17T00:12:07.455Z,957.34
2017-04-17T00:13:08.105Z,957.33
2017-04-17T00:14:07.625Z,957.32
2017-04-17T00:15:08.246Z,957.27
2017-04-17T00:16:07.753Z,957.27
2017-04-17T00:17:08.432Z,957.20
2017-04-17T00:18:07.971Z,957.24
2017-04-17T00:19:07.630Z,957.23
2017-04-17T00:20:08.025Z,957.24
2017-04-17T00:21:07.690Z,957.20
2017-04-17T00:22:08.473Z,957.21
2017-04-17T00:23:08.249Z,957.20
2017-04-17T00:24:07.879Z,957.17
2017-04-17T00:25:07.619Z,957.14
2017-04-17T00:26:08.213Z,957.14
2017-04-17T00:27:07.720Z,957.13
2017-04-17T00:28:08.493Z,957.14
2017-04-17T00:29:08.070Z,957.12
2017-04-17T00:30:07.731Z,957.11
2017-04-17T00:31:07.403Z,957.08
2017-04-17T00:32:07.885Z,957.12
2017-04-17T00:33:07.531Z,957.08
2017-04-17T00:34:08.065Z,957.06
2017-04-17T00:35:07.691Z,957.03
2017-04-17T00:36:08.843Z,957.06
2017-04-17T00:37:07.333Z,957.06
2017-04-17T00:38:07.943Z,957.06
2017-04-17T00:39:07.549Z,957.04
2017-04-17T00:40:08.090Z,956.99
2017-04-17T00:41:07.894Z,956.99
2017-04-17T00:42:07.358Z,956.98
2017-04-17T00:43:07.835Z,956.99
2017-04-17T00:44:07.660Z,957.00
2017-04-17T00:45:08.238Z,956.97
2017-04-17T00:46:07.803Z,957.02
2017-04-17T00:47:07.368Z,956.93
2017-04-17T00:48:07.934Z,956.93
2017-04-17T00:49:07.743Z,956.92
2017-04-17T00:50:08.380Z,956.96
2017-04-17T00:51:07.990Z,956.90
2017-04-17T00:52:07.599Z,956.90
2017-04-17T00:53:08.711Z,956.92
2017-04-17T00:54:08.197Z,956.94
2017-04-17T00:55:07.685Z,956.92
2017-04-17T00:56:08.233Z,956.90
2017-04-17T00:57:07.841Z,956.93
2017-04-17T00:58:07.794Z,956.93
2017-04-17T00:59:07.343Z,956.94
2017-04-17T01:00:08.045Z,956.94
2017-04-17T01:01:07.895Z,956.96
2017-04-17T01:02:07.534Z,956.89
2017-04-17T01:03:08.375Z,956.88
2017-04-17T01:04:08.241Z,956.88
2017-04-17T01:05:08.013Z,956.88
2017-04-17T01:06:07.743Z,956.89
2017-04-17T01:07:08.493Z,956.87
2017-04-17T01:08:08.137Z,956.89
2017-04-17T01:09:07.823Z,956.89
2017-04-17T01:10:07.525Z,956.86
2017-04-17T01:11:08.207Z,956.89
2017-04-17T01:12:08.087Z,956.88
2017-04-17T01:13:07.809Z,956.83
2017-04-17T01:14:07.672Z,956.84
2017-04-17T01:15:07.382Z,956.85
2017-04-17T01:16:08.204Z,956.87
2017-04-17T01:17:08.509Z,956.83
2017-04-17T01:18:08.337Z,956.84
2017-04-17T01:19:08.198Z,956.80
2017-04-17T01:20:07.776Z,956.80
2017-04-17T01:21:07.487Z,956.81
2017-04-17T01:22:08.237Z,956.78
2017-04-17T01:23:08.005Z,956.77
2017-04-17T01:24:07.649Z,956.79
2017-04-17T01:25:08.374Z,956.80
2017-04-17T01:26:07.976Z,956.76
2017-04-17T01:27:07.611Z,956.70
2017-04-17T01:28:08.177Z,956.74
2017-04-17T01:29:07.751Z,956.72
2017-04-17T01:30:08.405Z,956.74
2017-04-17T01:31:07.988Z,956.72
2017-04-17T01:32:07.657Z,956.72
2017-04-17T01:33:08.252Z,956.69
2017-04-17T01:34:07.950Z,956.71
2017-04-17T01:35:07.473Z,956.72
2017-04-17T01:36:07.966Z,956.64
2017-04-17T01:37:07.523Z,956.70
2017-04-17T01:38:08.184Z,956.65
2017-04-17T01:39:08.232Z,956.67
2017-04-17T01:40:07.705Z,956.67
2017-04-17T01:41:08.246Z,956.68
2017-04-17T01:42:07.825Z,956.62
2017-04-17T01:43:07.619Z,956.62
2017-04-17T01:44:08.484Z,956.65
2017-04-17T01:45:08.036Z,956.62
2017-04-17T01:46:07.748Z,956.64
2017-04-17T01:47:08.400Z,956.64
2017-04-17T01:48:08.060Z,956.61
2017-04-17T01:49:07.556Z,956.58
2017-04-17T01:50:08.209Z,956.55
2017-04-17T01:51:07.995Z,956.58
2017-04-17T01:52:07.489Z,956.57
2017-04-17T01:53:08.156Z,956.57
2017-04-17T01:54:07.837Z,956.59
2017-04-17T01:55:07.932Z,956.55
2017-04-17T01:56:07.548Z,956.48
2017-04-17T01:57:08.074Z,956.57
2017-04-17T01:58:07.690Z,956.57
2017-04-17T01:59:08.259Z,956.50
2017-04-17T02:00:07.795Z,956.53
2017-04-17T02:01:07.359Z,956.56
2017-04-17T02:02:07.838Z,956.51
2017-04-17T02:03:07.345Z,956.49
2017-04-17T02:04:08.055Z,956.50
2017-04-17T02:05:08.299Z,956.49
2017-04-17T02:06:07.888Z,956.46
2017-04-17T02:07:08.069Z,956.46
2017-04-17T02:08:07.926Z,956.44
2017-04-17T02:09:07.703Z,956.43
2017-04-17T02:10:08.326Z,956.47
2017-04-17T02:11:08.054Z,956.45
2017-04-17T02:12:07.569Z,956.43
2017-04-17T02:13:08.193Z,956.46
2017-04-17T02:14:07.924Z,956.41
2017-04-17T02:15:07.552Z,956.44
2017-04-17T02:16:08.180Z,956.43
2017-04-17T02:17:07.745Z,956.37
2017-04-17T02:18:08.261Z,956.42
2017-04-17T02:19:07.991Z,956.40
2017-04-17T02:20:07.660Z,956.40
2017-04-17T02:21:08.212Z,956.34
2017-04-17T02:22:07.737Z,956.29
2017-04-17T02:23:08.361Z,956.35
2017-04-17T02:24:08.457Z,956.32
2017-04-17T02:25:07.953Z,956.29
2017-04-17T02:26:07.538Z,956.28
2017-04-17T02:27:07.526Z,956.31
2017-04-17T02:28:08.155Z,956.34
2017-04-17T02:29:14.658Z,956.24
2017-04-17T02:30:08.238Z,956.30
2017-04-17T02:31:07.796Z,956.29
2017-04-17T02:32:07.387Z,956.32
2017-04-17T02:33:08.229Z,956.34
2017-04-17T02:34:07.888Z,956.32
2017-04-17T02:35:07.672Z,956.29
2017-04-17T02:36:08.002Z,956.26
2017-04-17T02:37:07.659Z,956.28
2017-04-17T02:38:07.601Z,956.21
2017-04-17T02:39:07.718Z,956.24
2017-04-17T02:40:08.235Z,956.25
2017-04-17T02:41:07.669Z,956.24
2017-04-17T02:42:07.678Z,956.32
2017-04-17T02:43:08.241Z,956.23
2017-04-17T02:44:08.352Z,956.19
2017-04-17T02:45:07.816Z,956.21
2017-04-17T02:46:08.146Z,956.29
2017-04-17T02:47:07.889Z,956.25
2017-04-17T02:48:07.667Z,956.21
2017-04-17T02:49:08.529Z,956.17
2017-04-17T02:50:08.282Z,956.21
2017-04-17T02:51:08.149Z,956.21
2017-04-17T02:52:07.874Z,956.20
2017-04-17T02:53:07.632Z,956.17
2017-04-17T02:54:08.225Z,956.16
2017-04-17T02:55:07.885Z,956.16
2017-04-17T02:56:07.595Z,956.14
2017-04-17T02:57:08.316Z,956.21
2017-04-17T02:58:07.708Z,956.22
2017-04-17T02:59:08.583Z,956.18
2017-04-17T03:00:07.531Z,956.17
2017-04-17T03:01:08.073Z,956.19
2017-04-17T03:02:07.821Z,956.17
2017-04-17T03:03:07.403Z,956.14
2017-04-17T03:04:08.006Z,956.13
2017-04-17T03:05:07.598Z,956.13
2017-04-17T03:06:08.315Z,956.13
2017-04-17T03:07:08.140Z,956.11
2017-04-17T03:08:07.779Z,956.10
2017-04-17T03:09:07.750Z,956.11
2017-04-17T03:10:08.263Z,956.16
2017-04-17T03:11:07.792Z,956.13
2017-04-17T03:12:07.259Z,956.12
2017-04-17T03:13:07.954Z,956.08
2017-04-17T03:14:07.906Z,956.15
2017-04-17T03:15:07.492Z,956.11
2017-04-17T03:16:08.089Z,956.10
2017-04-17T03:17:07.712Z,956.15
2017-04-17T03:18:07.758Z,956.09
2017-04-17T03:19:07.280Z,956.19
2017-04-17T03:20:07.896Z,956.13
2017-04-17T03:21:07.616Z,956.10
2017-04-17T03:22:08.505Z,956.09
2017-04-17T03:23:08.116Z,956.09
2017-04-17T03:24:07.716Z,956.09
2017-04-17T03:25:07.881Z,956.08
2017-04-17T03:26:07.620Z,956.10
2017-04-17T03:27:08.489Z,956.09
2017-04-17T03:28:08.256Z,956.09
2017-04-17T03:29:08.099Z,956.08
2017-04-17T03:30:07.792Z,956.07
2017-04-17T03:31:07.349Z,956.08
2017-04-17T03:32:07.977Z,956.10
2017-04-17T03:33:07.534Z,956.12
2017-04-17T03:34:08.119Z,956.15
2017-04-17T03:35:07.719Z,956.13
2017-04-17T03:36:07.280Z,956.19
2017-04-17T03:37:07.810Z,956.09
2017-04-17T03:38:08.525Z,956.09
2017-04-17T03:39:08.238Z,956.03
2017-04-17T03:40:07.790Z,956.06
2017-04-17T03:41:07.321Z,956.12
2017-04-17T03:42:07.898Z,956.06
2017-04-17T03:43:07.398Z,956.06
2017-04-17T03:44:07.914Z,956.04
2017-04-17T03:45:07.422Z,956.13
2017-04-17T03:46:08.004Z,956.04
2017-04-17T03:47:07.607Z,956.07
2017-04-17T03:48:08.177Z,956.13
2017-04-17T03:49:07.737Z,956.07
2017-04-17T03:50:08.337Z,956.06
2017-04-17T03:51:07.968Z,955.98
2017-04-17T03:52:07.537Z,955.99
2017-04-17T03:53:08.869Z,956.04
2017-04-17T03:54:07.348Z,956.01
2017-04-17T03:55:07.930Z,955.99
2017-04-17T03:56:07.498Z,955.93
2017-04-17T03:57:08.137Z,955.96
2017-04-17T03:58:07.768Z,955.98
2017-04-17T03:59:07.333Z,955.96
2017-04-17T04:00:07.900Z,955.95
2017-04-17T04:01:07.370Z,955.94
2017-04-17T04:02:08.015Z,955.91
2017-04-17T04:03:07.587Z,955.90
2017-04-17T04:04:08.187Z,955.90
2017-04-17T04:05:08.475Z,955.88
2017-04-17T04:06:08.058Z,955.88
2017-04-17T04:07:07.660Z,955.88
2017-04-17T04:08:07.357Z,955.87
2017-04-17T04:09:08.048Z,955.83
2017-04-17T04:10:07.680Z,955.86
2017-04-17T04:11:08.330Z,955.87
2017-04-17T04:12:07.966Z,955.87
2017-04-17T04:13:07.568Z,955.85
2017-04-17T04:14:08.167Z,955.87
2017-04-17T04:15:07.896Z,955.85
2017-04-17T04:16:07.352Z,955.83
2017-04-17T04:17:08.185Z,955.82
2017-04-17T04:18:07.786Z,955.80
2017-04-17T04:19:07.335Z,955.79
2017-04-17T04:20:07.884Z,955.81
2017-04-17T04:21:07.483Z,955.80
2017-04-17T04:22:08.151Z,955.82
2017-04-17T04:23:07.697Z,955.84
2017-04-17T04:24:08.333Z,955.82
2017-04-17T04:25:11.133Z,955.80
2017-04-17T04:26:08.116Z,955.79
2017-04-17T04:27:08.524Z,955.80
2017-04-17T04:28:08.113Z,955.75
2017-04-17T04:29:07.611Z,955.80
2017-04-17T04:30:08.234Z,955.78
2017-04-17T04:31:07.763Z,955.74
2017-04-17T04:32:07.354Z,955.78
2017-04-17T04:33:07.869Z,955.74
2017-04-17T04:34:07.326Z,955.73
2017-04-17T04:35:08.157Z,955.72
2017-04-17T04:36:07.690Z,955.72
2017-04-17T04:37:08.234Z,955.70
2017-04-17T04:38:07.886Z,955.68
2017-04-17T04:39:07.405Z,955.71
2017-04-17T04:40:07.930Z,955.68
2017-04-17T04:41:07.450Z,955.68
2017-04-17T04:42:07.973Z,955.68
2017-04-17T04:43:07.544Z,955.68
2017-04-17T04:44:08.577Z,955.65
2017-04-17T04:45:08.109Z,955.70
2017-04-17T04:46:07.689Z,955.67
2017-04-17T04:47:08.309Z,955.68
2017-04-17T04:48:07.981Z,955.68
2017-04-17T04:49:07.631Z,955.70
2017-04-17T04:50:08.147Z,955.71
2017-04-17T04:51:08.583Z,955.73
2017-04-17T04:52:08.133Z,955.68
2017-04-17T04:53:07.648Z,955.68
2017-04-17T04:54:08.658Z,955.69
2017-04-17T04:55:08.183Z,955.69
2017-04-17T04:56:07.776Z,955.65
2017-04-17T04:57:07.258Z,955.65
2017-04-17T04:58:07.785Z,955.65
2017-04-17T04:59:07.298Z,955.67
2017-04-17T05:00:07.851Z,955.64
2017-04-17T05:01:07.610Z,955.65
2017-04-17T05:02:08.185Z,955.59
2017-04-17T05:03:07.788Z,955.63
2017-04-17T05:04:07.216Z,955.65
2017-04-17T05:05:07.707Z,955.60
2017-04-17T05:06:07.306Z,955.64
2017-04-17T05:07:07.907Z,955.64
2017-04-17T05:08:07.524Z,955.61
2017-04-17T05:09:08.087Z,955.66
2017-04-17T05:10:07.683Z,955.63
2017-04-17T05:11:08.253Z,955.61
2017-04-17T05:12:07.841Z,955.60
2017-04-17T05:13:07.385Z,955.61
2017-04-17T05:14:08.101Z,955.57
2017-04-17T05:15:07.882Z,955.67
2017-04-17T05:16:07.458Z,955.61
2017-04-17T05:17:08.166Z,955.64
2017-04-17T05:18:07.870Z,955.62
2017-04-17T05:19:07.357Z,955.63
2017-04-17T05:20:07.913Z,955.60
2017-04-17T05:21:07.440Z,955.59
2017-04-17T05:22:07.896Z,955.68
2017-04-17T05:23:07.522Z,955.63
2017-04-17T05:24:08.088Z,955.66
2017-04-17T05:25:07.527Z,955.62
2017-04-17T05:26:08.354Z,955.64
2017-04-17T05:27:07.898Z,955.70
2017-04-17T05:28:07.421Z,955.67
2017-04-17T05:29:08.028Z,955.67
2017-04-17T05:30:07.549Z,955.67
2017-04-17T05:31:08.094Z,955.65
2017-04-17T05:32:07.594Z,955.65
2017-04-17T05:33:08.180Z,955.64
2017-04-17T05:34:07.767Z,955.64
2017-04-17T05:35:07.267Z,955.64
2017-04-17T05:36:07.856Z,955.63
2017-04-17T05:37:07.387Z,955.60
2017-04-17T05:38:07.997Z,955.66
2017-04-17T05:39:07.566Z,955.63
2017-04-17T05:40:08.566Z,955.61
2017-04-17T05:41:08.184Z,955.58
2017-04-17T05:42:07.787Z,955.59
2017-04-17T05:43:07.325Z,955.61
2017-04-17T05:44:07.906Z,955.61
2017-04-17T05:45:07.538Z,955.64
2017-04-17T05:46:08.108Z,955.55
2017-04-17T05:47:07.704Z,955.63
2017-04-17T05:48:08.362Z,955.61
2017-04-17T05:49:07.912Z,955.54
2017-04-17T05:50:07.750Z,955.59
2017-04-17T05:51:07.597Z,955.60
2017-04-17T05:52:08.200Z,955.61
2017-04-17T05:53:07.783Z,955.54
2017-04-17T05:54:07.380Z,955.53
2017-04-17T05:55:07.983Z,955.57
2017-04-17T05:56:07.521Z,955.54
2017-04-17T05:57:08.094Z,955.56
2017-04-17T05:58:07.686Z,955.54
2017-04-17T05:59:08.267Z,955.53
2017-04-17T06:00:07.784Z,955.52
2017-04-17T06:01:07.306Z,955.51
2017-04-17T06:02:07.821Z,955.53
2017-04-17T06:03:07.359Z,955.50
2017-04-17T06:04:07.956Z,955.48
2017-04-17T06:05:07.557Z,955.45
2017-04-17T06:06:08.497Z,955.47
2017-04-17T06:07:08.078Z,955.47
2017-04-17T06:08:07.577Z,955.47
2017-04-17T06:09:08.639Z,955.46
2017-04-17T06:10:08.268Z,955.50
2017-04-17T06:11:07.866Z,955.49
2017-04-17T06:12:07.492Z,955.50
2017-04-17T06:13:08.076Z,955.50
2017-04-17T06:14:07.667Z,955.52
2017-04-17T06:15:08.255Z,955.53
2017-04-17T06:16:08.103Z,955.48
2017-04-17T06:17:07.643Z,955.55
2017-04-17T06:18:07.376Z,955.51
2017-04-17T06:19:07.905Z,955.51
2017-04-17T06:20:07.407Z,955.48
2017-04-17T06:21:08.035Z,955.47
2017-04-17T06:22:08.031Z,955.50
2017-04-17T06:23:07.526Z,955.50
2017-04-17T06:24:08.139Z,955.45
2017-04-17T06:25:07.583Z,955.49
2017-04-17T06:26:07.388Z,955.45
2017-04-17T06:27:07.989Z,955.45
2017-04-17T06:28:07.509Z,955.46
2017-04-17T06:29:08.338Z,955.46
2017-04-17T06:30:07.936Z,955.44
2017-04-17T06:31:07.554Z,955.45
2017-04-17T06:32:08.175Z,955.47
2017-04-17T06:33:07.739Z,955.47
2017-04-17T06:34:08.372Z,955.44
2017-04-17T06:35:08.025Z,955.43
2017-04-17T06:36:07.781Z,955.43
2017-04-17T06:37:07.424Z,955.43
2017-04-17T06:38:08.022Z,955.40
2017-04-17T06:39:07.578Z,955.44
2017-04-17T06:40:08.319Z,955.40
2017-04-17T06:41:07.895Z,955.44
2017-04-17T06:42:07.547Z,955.39
2017-04-17T06:43:08.121Z,955.37
2017-04-17T06:44:07.715Z,955.37
2017-04-17T06:45:08.358Z,955.35
2017-04-17T06:46:07.928Z,955.35
2017-04-17T06:47:07.428Z,955.37
2017-04-17T06:48:07.973Z,955.34
2017-04-17T06:49:07.468Z,955.35
2017-04-17T06:50:08.047Z,955.38
2017-04-17T06:51:08.112Z,955.38
2017-04-17T06:52:07.637Z,955.41
2017-04-17T06:53:08.232Z,955.40
2017-04-17T06:54:07.840Z,955.34
2017-04-17T06:55:07.477Z,955.29
2017-04-17T06:56:08.015Z,955.31
2017-04-17T06:57:07.571Z,955.34
2017-04-17T06:58:08.173Z,955.31
2017-04-17T06:59:07.696Z,955.25
2017-04-17T07:00:08.323Z,955.27
2017-04-17T07:01:07.872Z,955.24
2017-04-17T07:02:07.331Z,955.26
2017-04-17T07:03:07.891Z,955.17
2017-04-17T07:04:07.362Z,955.18
2017-04-17T07:05:07.906Z,955.18
2017-04-17T07:06:07.360Z,955.10
2017-04-17T07:07:07.986Z,955.12
2017-04-17T07:08:07.730Z,955.12
2017-04-17T07:09:08.313Z,955.13
2017-04-17T07:10:08.437Z,955.12
2017-04-17T07:11:08.111Z,955.12
2017-04-17T07:12:07.614Z,955.05
2017-04-17T07:13:08.122Z,955.07
2017-04-17T07:14:07.688Z,955.01
2017-04-17T07:15:08.235Z,954.97
2017-04-17T07:16:07.824Z,954.99
2017-04-17T07:17:07.540Z,954.98
2017-04-17T07:18:08.137Z,954.98
2017-04-17T07:19:07.746Z,954.94
2017-04-17T07:20:08.376Z,954.90
2017-04-17T07:21:07.936Z,954.89
2017-04-17T07:22:07.512Z,954.85
2017-04-17T07:23:08.043Z,954.89
2017-04-17T07:24:07.595Z,954.85
2017-04-17T07:25:08.830Z,954.92
2017-04-17T07:26:07.488Z,954.83
2017-04-17T07:27:08.069Z,954.81
2017-04-17T07:28:07.579Z,954.80
2017-04-17T07:29:08.167Z,954.84
2017-04-17T07:30:07.723Z,954.78
2017-04-17T07:31:08.407Z,954.80
2017-04-17T07:32:07.864Z,954.78
2017-04-17T07:33:07.379Z,954.75
2017-04-17T07:34:07.982Z,954.72
2017-04-17T07:35:07.614Z,954.72
2017-04-17T07:36:08.647Z,954.74
2017-04-17T07:37:08.247Z,954.67
2017-04-17T07:38:07.777Z,954.72
2017-04-17T07:39:07.408Z,954.70
2017-04-17T07:40:07.873Z,954.71
2017-04-17T07:41:07.381Z,954.65
2017-04-17T07:42:07.897Z,954.66
2017-04-17T07:43:07.454Z,954.62
2017-04-17T07:44:07.968Z,954.60
2017-04-17T07:45:07.503Z,954.57
2017-04-17T07:46:08.016Z,954.62
2017-04-17T07:47:08.126Z,954.59
2017-04-17T07:48:07.703Z,954.60
2017-04-17T07:49:08.272Z,954.53
2017-04-17T07:50:07.917Z,954.52
2017-04-17T07:51:07.513Z,954.50
2017-04-17T07:52:08.115Z,954.48
2017-04-17T07:53:07.679Z,954.51
2017-04-17T07:54:08.234Z,954.46
2017-04-17T07:55:07.819Z,954.47
2017-04-17T07:56:07.425Z,954.46
2017-04-17T07:57:07.966Z,954.45
2017-04-17T07:58:07.425Z,954.46
2017-04-17T07:59:08.073Z,954.41
2017-04-17T08:00:07.745Z,954.44
2017-04-17T08:01:08.341Z,954.38
2017-04-17T08:02:07.931Z,954.37
2017-04-17T08:03:07.427Z,954.40
2017-04-17T08:04:07.954Z,954.36
2017-04-17T08:05:07.456Z,954.34
2017-04-17T08:06:07.948Z,954.32
2017-04-17T08:07:07.942Z,954.29
2017-04-17T08:08:07.523Z,954.25
2017-04-17T08:09:08.071Z,954.28
2017-04-17T08:10:07.847Z,954.22
2017-04-17T08:11:07.346Z,954.19
2017-04-17T08:12:07.991Z,954.22
2017-04-17T08:13:07.468Z,954.24
2017-04-17T08:14:08.025Z,954.18
2017-04-17T08:15:07.505Z,954.17
2017-04-17T08:16:08.053Z,954.17
2017-04-17T08:17:07.829Z,954.19
2017-04-17T08:18:07.303Z,954.16
2017-04-17T08:19:07.814Z,954.16
2017-04-17T08:20:07.418Z,954.14
2017-04-17T08:21:08.024Z,954.14
2017-04-17T08:22:07.584Z,954.14
2017-04-17T08:23:08.077Z,954.12
2017-04-17T08:24:07.631Z,954.14
2017-04-17T08:25:08.357Z,954.13
2017-04-17T08:26:08.178Z,954.12
2017-04-17T08:27:07.820Z,954.14
2017-04-17T08:28:07.303Z,954.13
2017-04-17T08:29:07.793Z,954.08
2017-04-17T08:30:07.330Z,954.12
2017-04-17T08:31:07.884Z,954.07
2017-04-17T08:32:07.451Z,954.07
2017-04-17T08:33:08.042Z,954.04
2017-04-17T08:34:07.832Z,954.00
2017-04-17T08:35:07.275Z,953.98
2017-04-17T08:36:07.932Z,953.97
2017-04-17T08:37:08.004Z,953.98
2017-04-17T08:38:07.566Z,953.98
2017-04-17T08:39:08.143Z,953.91
2017-04-17T08:40:07.653Z,953.91
2017-04-17T08:41:08.235Z,953.91
2017-04-17T08:42:07.816Z,953.88
2017-04-17T08:43:07.455Z,953.89
2017-04-17T08:44:08.085Z,953.86
2017-04-17T08:45:07.686Z,953.88
2017-04-17T08:46:08.305Z,953.82
2017-04-17T08:47:07.889Z,953.85
2017-04-17T08:48:07.458Z,953.81
2017-04-17T08:49:07.944Z,953.86
2017-04-17T08:50:07.463Z,953.87
2017-04-17T08:51:08.090Z,953.86
2017-04-17T08:52:07.587Z,953.81
2017-04-17T08:53:08.149Z,953.82
2017-04-17T08:54:07.667Z,953.84
2017-04-17T08:55:08.509Z,953.82
2017-04-17T08:56:08.008Z,953.80
2017-04-17T08:57:07.895Z,953.81
2017-04-17T08:58:07.442Z,953.69
2017-04-17T08:59:07.981Z,953.72
2017-04-17T09:00:07.540Z,953.66
2017-04-17T09:01:08.056Z,953.66
2017-04-17T09:02:07.682Z,953.64
2017-04-17T09:03:08.233Z,953.65
2017-04-17T09:04:07.941Z,953.68
2017-04-17T09:05:07.528Z,953.68
2017-04-17T09:06:08.092Z,953.68
2017-04-17T09:07:08.161Z,953.67
2017-04-17T09:08:07.687Z,953.59
2017-04-17T09:09:07.391Z,953.60
2017-04-17T09:10:07.973Z,953.59
2017-04-17T09:11:07.435Z,953.56
2017-04-17T09:12:08.127Z,953.57
2017-04-17T09:13:07.721Z,953.58
2017-04-17T09:14:08.346Z,953.56
2017-04-17T09:15:15.569Z,953.58
2017-04-17T09:16:08.157Z,953.55
2017-04-17T09:17:08.375Z,953.51
2017-04-17T09:18:07.935Z,953.52
2017-04-17T09:19:07.524Z,953.53
2017-04-17T09:20:08.045Z,953.47
2017-04-17T09:21:07.508Z,953.49
2017-04-17T09:22:08.564Z,953.50
2017-04-17T09:23:08.282Z,953.42
2017-04-17T09:24:08.707Z,953.49
2017-04-17T09:25:09.288Z,953.38
2017-04-17T09:26:07.908Z,953.42
2017-04-17T09:27:07.414Z,953.43
2017-04-17T09:28:07.918Z,953.40
2017-04-17T09:29:07.463Z,953.36
2017-04-17T09:30:08.113Z,953.34
2017-04-17T09:31:07.578Z,953.29
2017-04-17T09:32:08.138Z,953.30
2017-04-17T09:33:07.716Z,953.26
2017-04-17T09:34:08.292Z,953.32
2017-04-17T09:35:07.929Z,953.22
2017-04-17T09:36:07.607Z,953.24
2017-04-17T09:37:08.304Z,953.22
2017-04-17T09:38:07.829Z,953.26
2017-04-17T09:39:07.320Z,953.21
2017-04-17T09:40:07.846Z,953.18
2017-04-17T09:41:07.439Z,953.18
2017-04-17T09:42:07.997Z,953.18
2017-04-17T09:43:07.593Z,953.14
2017-04-17T09:44:08.218Z,953.16
2017-04-17T09:45:07.717Z,953.15
2017-04-17T09:46:08.254Z,953.10
2017-04-17T09:47:07.738Z,953.12
2017-04-17T09:48:08.316Z,953.11
2017-04-17T09:49:07.825Z,953.04
2017-04-17T09:50:07.463Z,953.08
2017-04-17T09:51:08.128Z,953.07
2017-04-17T09:52:07.634Z,952.96
2017-04-17T09:53:08.285Z,953.00
2017-04-17T09:54:07.874Z,952.96
2017-04-17T09:55:07.383Z,952.94
2017-04-17T09:56:08.109Z,952.95
2017-04-17T09:57:07.656Z,952.88
2017-04-17T09:58:08.128Z,952.87
2017-04-17T09:59:07.906Z,952.89
2017-04-17T10:00:07.459Z,952.89
2017-04-17T10:01:07.940Z,952.84
2017-04-17T10:02:07.497Z,952.84
2017-04-17T10:03:08.075Z,952.80
2017-04-17T10:04:07.678Z,952.80
2017-04-17T10:05:08.205Z,952.79
2017-04-17T10:06:07.765Z,952.78
2017-04-17T10:07:07.351Z,952.79
2017-04-17T10:08:08.027Z,952.79
2017-04-17T10:09:07.674Z,952.74
2017-04-17T10:10:15.343Z,952.79
2017-04-17T10:11:08.494Z,952.70
2017-04-17T10:12:08.086Z,952.71
2017-04-17T10:13:07.668Z,952.72
2017-04-17T10:14:08.329Z,952.74
2017-04-17T10:15:07.973Z,952.77
2017-04-17T10:16:07.524Z,952.74
2017-04-17T10:17:08.297Z,952.70
2017-04-17T10:23:31.520Z,952.56
2017-04-17T10:25:25.457Z,952.58
2017-04-17T10:26:29.588Z,952.51
2017-04-17T10:27:27.717Z,952.45
2017-04-17T10:29:29.391Z,952.50
2017-04-17T10:30:22.882Z,952.48
2017-04-17T10:31:33.005Z,952.45
2017-04-17T10:32:26.526Z,952.43
2017-04-17T10:33:19.741Z,952.44
2017-04-17T10:34:18.949Z,952.43
2017-04-17T10:35:29.973Z,952.41
2017-04-17T10:37:24.723Z,952.41
2017-04-17T10:38:25.698Z,952.36
2017-04-17T10:40:24.798Z,952.33
2017-04-17T10:41:30.692Z,952.36
2017-04-17T10:42:28.877Z,952.34
2017-04-17T10:43:36.449Z,952.37
2017-04-17T10:44:19.603Z,952.33
2017-04-17T10:45:27.644Z,952.31
2017-04-17T10:48:28.414Z,952.27
2017-04-17T10:49:22.526Z,952.30
2017-04-17T10:50:28.090Z,952.28
2017-04-17T10:51:23.065Z,952.31
2017-04-17T10:52:23.272Z,952.30
2017-04-17T10:53:29.436Z,952.33
2017-04-17T10:54:18.490Z,952.43
2017-04-17T10:55:18.792Z,952.33
2017-04-17T10:56:25.699Z,952.22
2017-04-17T10:57:18.797Z,952.35
2017-04-17T10:58:26.464Z,952.32
2017-04-17T11:00:22.670Z,952.35
2017-04-17T11:01:25.688Z,952.40
2017-04-17T11:02:26.068Z,952.39
2017-04-17T11:03:25.484Z,952.34
2017-04-17T11:04:22.775Z,952.30
2017-04-17T11:05:28.696Z,952.38
2017-04-17T11:06:21.421Z,952.41
2017-04-17T11:07:19.327Z,952.34
2017-04-17T11:08:25.719Z,952.35
2017-04-17T11:09:25.726Z,952.33
2017-04-17T11:10:27.086Z,952.28
2017-04-17T11:11:23.129Z,952.24
2017-04-17T11:12:23.352Z,952.27
2017-04-17T11:13:18.996Z,952.22
2017-04-17T11:14:23.290Z,952.25
2017-04-17T11:15:17.496Z,952.24
2017-04-17T11:16:26.231Z,952.23
2017-04-17T11:17:30.294Z,952.18
2017-04-17T11:18:30.220Z,952.29
2017-04-17T11:19:31.538Z,952.16
2017-04-17T11:20:19.492Z,952.13
2017-04-17T11:21:18.697Z,952.19
2017-04-17T11:22:30.641Z,952.13
2017-04-17T11:23:19.414Z,952.13
2017-04-17T11:24:25.335Z,952.01
2017-04-17T11:26:27.436Z,951.98
2017-04-17T11:27:25.819Z,951.99
2017-04-17T11:28:25.079Z,951.97
2017-04-17T11:29:31.143Z,951.93
2017-04-17T11:30:30.029Z,951.94
2017-04-17T11:31:23.103Z,951.96
2017-04-17T11:32:23.161Z,951.94
2017-04-17T11:33:19.361Z,951.94
2017-04-17T11:34:22.473Z,951.87
2017-04-17T11:35:22.957Z,951.82
2017-04-17T11:36:17.558Z,951.84
2017-04-17T11:37:29.946Z,951.81
2017-04-17T11:38:31.146Z,951.84
2017-04-17T11:39:32.525Z,951.83
2017-04-17T11:40:25.887Z,951.82
2017-04-17T11:41:19.206Z,951.73
2017-04-17T11:42:24.182Z,951.75
2017-04-17T11:43:29.607Z,951.77
2017-04-17T11:44:21.255Z,951.75
2017-04-17T11:45:22.258Z,951.76
2017-04-17T11:46:20.407Z,951.74
2017-04-17T11:47:23.815Z,951.66
2017-04-17T11:48:27.508Z,951.70
2017-04-17T11:50:28.782Z,951.62
2017-04-17T11:52:32.548Z,951.65
2017-04-17T11:53:23.625Z,951.67
2017-04-17T11:54:19.019Z,951.68
2017-04-17T11:56:33.980Z,951.59
2017-04-17T11:57:36.251Z,951.67
2017-04-17T11:59:23.224Z,951.57
2017-04-17T12:00:38.743Z,951.57
2017-04-17T12:01:38.076Z,951.52
2017-04-17T12:02:26.310Z,951.53
2017-04-17T12:03:18.508Z,951.53
2017-04-17T12:04:18.596Z,951.43
2017-04-17T12:07:27.717Z,951.50
2017-04-17T12:08:17.441Z,951.43
2017-04-17T12:09:34.555Z,951.41
2017-04-17T12:11:36.937Z,951.37
2017-04-17T12:12:30.046Z,951.36
2017-04-17T12:14:24.140Z,951.29
2017-04-17T12:15:29.128Z,951.31
2017-04-17T12:16:32.675Z,951.29
2017-04-17T12:18:50.035Z,951.33
2017-04-17T12:19:20.562Z,951.23
2017-04-17T12:20:28.485Z,951.29
2017-04-17T12:21:22.786Z,951.26
2017-04-17T12:22:12.506Z,951.25
2017-04-17T12:24:27.477Z,951.22
2017-04-17T12:25:28.154Z,951.18
2017-04-17T12:26:20.087Z,951.23
2017-04-17T12:27:27.153Z,951.27
2017-04-17T12:28:25.250Z,951.20
2017-04-17T12:29:27.929Z,951.26
2017-04-17T12:30:16.299Z,951.22
2017-04-17T12:31:27.881Z,951.19
2017-04-17T12:32:18.176Z,951.22
2017-04-17T12:33:19.275Z,951.24
2017-04-17T12:34:27.482Z,951.27
2017-04-17T12:35:25.595Z,951.32
2017-04-17T12:36:26.986Z,951.24
2017-04-17T12:38:28.658Z,951.16
2017-04-17T12:39:26.807Z,951.15
2017-04-17T12:41:25.784Z,951.20
2017-04-17T12:42:28.859Z,951.24
2017-04-17T12:43:31.936Z,951.28
2017-04-17T12:44:27.095Z,951.19
2017-04-17T12:45:22.743Z,951.24
2017-04-17T12:46:33.565Z,951.24
2017-04-17T12:47:27.554Z,951.22
2017-04-17T12:48:23.576Z,951.18
2017-04-17T12:49:22.332Z,951.23
2017-04-17T12:50:26.382Z,951.16
2017-04-17T12:51:26.682Z,951.18
2017-04-17T12:52:27.779Z,951.15
2017-04-17T12:53:27.975Z,951.15